createdAt,value
2022-08-20T00:02:10.816Z,45.30
2022-08-20T00:04:39.555Z,45.20
2022-08-20T00:07:08.867Z,45.20
2022-08-20T00:09:37.020Z,44.90
2022-08-20T00:12:05.963Z,45.50
2022-08-20T00:14:34.115Z,44.70
2022-08-20T00:17:02.081Z,44.60
2022-08-20T00:19:29.802Z,44.50
2022-08-20T00:21:58.388Z,44.40
2022-08-20T00:24:27.718Z,44.30
2022-08-20T00:26:55.587Z,44.10
2022-08-20T00:29:23.384Z,44.10
2022-08-20T00:31:51.248Z,44.00
2022-08-20T00:34:19.056Z,43.80
2022-08-20T00:36:46.931Z,43.80
2022-08-20T00:39:14.696Z,43.70
2022-08-20T00:41:43.715Z,43.50
2022-08-20T00:44:13.483Z,43.20
2022-08-20T00:46:41.498Z,43.20
2022-08-20T00:49:10.088Z,43.10
2022-08-20T00:51:39.512Z,43.10
2022-08-20T00:54:10.788Z,42.90
2022-08-20T00:56:38.829Z,42.70
2022-08-20T00:59:11.360Z,42.70
2022-08-20T01:01:52.747Z,42.30
2022-08-20T01:04:24.954Z,42.50
2022-08-20T01:06:52.691Z,42.30
2022-08-20T01:09:49.873Z,42.20
2022-08-20T01:12:08.585Z,42.00
2022-08-20T01:14:43.727Z,42.00
2022-08-20T01:17:14.340Z,41.80
2022-08-20T01:19:44.388Z,41.70
2022-08-20T01:22:26.823Z,41.50
2022-08-20T01:24:57.928Z,41.40
2022-08-20T01:27:27.059Z,41.20
2022-08-20T01:29:58.544Z,41.20
2022-08-20T01:32:26.288Z,41.30
2022-08-20T01:34:54.012Z,41.00
2022-08-20T01:37:23.312Z,41.00
2022-08-20T01:39:59.239Z,40.90
2022-08-20T01:42:30.189Z,40.60
2022-08-20T01:44:57.969Z,40.50
2022-08-20T01:47:29.596Z,40.50
2022-08-20T01:50:00.464Z,40.40
2022-08-20T01:52:29.901Z,40.20
2022-08-20T01:54:57.664Z,40.20
2022-08-20T01:57:26.633Z,40.10
2022-08-20T01:59:55.711Z,40.10
2022-08-20T02:02:24.202Z,39.90
2022-08-20T02:04:51.963Z,39.90
2022-08-20T02:07:21.421Z,40.60
2022-08-20T02:09:49.443Z,39.90
2022-08-20T02:12:17.405Z,39.80
2022-08-20T02:14:47.058Z,39.70
2022-08-20T02:17:16.170Z,39.60
2022-08-20T02:19:46.843Z,39.70
2022-08-20T02:22:17.841Z,39.60
2022-08-20T02:24:45.548Z,39.60
2022-08-20T02:27:13.387Z,39.50
2022-08-20T02:29:41.116Z,39.50
2022-08-20T02:32:32.305Z,39.50
2022-08-20T02:34:59.186Z,39.50
2022-08-20T02:37:28.190Z,39.40
2022-08-20T02:39:55.956Z,39.50
2022-08-20T02:42:23.829Z,39.40
2022-08-20T02:44:51.585Z,39.40
2022-08-20T02:47:19.487Z,39.40
2022-08-20T02:49:47.162Z,39.40
2022-08-20T02:52:16.191Z,39.30
2022-08-20T02:54:43.885Z,39.40
2022-08-20T02:57:13.735Z,39.40
2022-08-20T02:59:41.467Z,39.50
2022-08-20T03:02:09.172Z,39.50
2022-08-20T03:04:36.912Z,39.50
2022-08-20T03:07:05.518Z,39.60
2022-08-20T03:09:34.520Z,39.50
2022-08-20T03:12:02.804Z,39.50
2022-08-20T03:14:30.470Z,39.50
2022-08-20T03:16:58.144Z,39.50
2022-08-20T03:19:25.819Z,39.60
2022-08-20T03:21:53.721Z,39.60
2022-08-20T03:24:21.424Z,39.50
2022-08-20T03:26:50.429Z,39.70
2022-08-20T03:29:18.100Z,39.70
2022-08-20T03:31:45.785Z,39.70
2022-08-20T03:34:13.455Z,39.80
2022-08-20T03:36:41.152Z,39.90
2022-08-20T03:39:11.511Z,39.80
2022-08-20T03:41:39.402Z,39.80
2022-08-20T03:44:08.498Z,39.80
2022-08-20T03:46:36.185Z,39.80
2022-08-20T03:49:04.074Z,39.80
2022-08-20T03:51:34.389Z,39.90
2022-08-20T03:54:19.749Z,40.00
2022-08-20T03:56:47.602Z,40.00
2022-08-20T03:59:16.603Z,40.00
2022-08-20T04:01:46.754Z,39.90
2022-08-20T04:04:14.770Z,40.00
2022-08-20T04:06:42.817Z,40.10
2022-08-20T04:09:11.640Z,40.00
2022-08-20T04:11:39.938Z,40.10
2022-08-20T04:14:07.654Z,40.20
2022-08-20T04:16:39.380Z,40.20
2022-08-20T04:19:07.363Z,40.10
2022-08-20T04:21:35.899Z,40.20
2022-08-20T04:24:04.211Z,40.30
2022-08-20T04:26:32.314Z,40.20
2022-08-20T04:29:00.069Z,40.30
2022-08-20T04:31:32.935Z,40.40
2022-08-20T04:34:02.830Z,40.30
2022-08-20T04:36:30.597Z,40.40
2022-08-20T04:38:58.246Z,40.40
2022-08-20T04:41:25.919Z,40.50
2022-08-20T04:43:54.651Z,40.50
2022-08-20T04:46:23.746Z,40.40
2022-08-20T04:48:51.411Z,40.50
2022-08-20T04:51:22.900Z,40.60
2022-08-20T04:53:53.604Z,40.60
2022-08-20T04:56:23.448Z,40.70
2022-08-20T04:58:52.264Z,40.70
2022-08-20T05:01:19.982Z,40.70
2022-08-20T05:03:48.142Z,40.70
2022-08-20T05:06:17.742Z,40.80
2022-08-20T05:08:46.756Z,40.80
2022-08-20T05:11:34.806Z,40.70
2022-08-20T05:14:02.484Z,40.80
2022-08-20T05:16:30.268Z,40.90
2022-08-20T05:18:57.920Z,41.00
2022-08-20T05:21:25.580Z,40.90
2022-08-20T05:23:54.570Z,41.00
2022-08-20T05:26:26.310Z,41.00
2022-08-20T05:28:58.513Z,41.10
2022-08-20T05:31:31.575Z,41.00
2022-08-20T05:34:01.358Z,41.10
2022-08-20T05:36:29.158Z,41.10
2022-08-20T05:38:58.158Z,41.10
2022-08-20T05:41:28.489Z,41.10
2022-08-20T05:43:57.775Z,41.10
2022-08-20T05:46:25.628Z,41.30
2022-08-20T05:48:53.304Z,41.20
2022-08-20T05:51:21.537Z,41.30
2022-08-20T05:53:49.245Z,41.40
2022-08-20T05:56:18.242Z,41.40
2022-08-20T05:58:45.916Z,41.50
2022-08-20T06:01:13.701Z,41.50
2022-08-20T06:03:59.191Z,41.50
2022-08-20T06:06:45.085Z,41.50
2022-08-20T06:09:14.444Z,41.50
2022-08-20T06:11:43.461Z,41.60
2022-08-20T06:14:11.131Z,42.20
2022-08-20T06:16:38.814Z,41.60
2022-08-20T06:19:06.552Z,41.80
2022-08-20T06:21:39.643Z,41.80
2022-08-20T06:24:08.209Z,41.80
2022-08-20T06:26:36.154Z,41.70
2022-08-20T06:29:05.539Z,41.80
2022-08-20T06:31:34.564Z,41.80
2022-08-20T06:34:02.703Z,41.80
2022-08-20T06:36:30.540Z,41.80
2022-08-20T06:38:58.219Z,41.90
2022-08-20T06:41:36.056Z,42.00
2022-08-20T06:44:05.538Z,42.00
2022-08-20T06:46:33.200Z,42.00
2022-08-20T06:49:00.949Z,42.00
2022-08-20T06:51:29.242Z,42.10
2022-08-20T06:53:57.105Z,42.00
2022-08-20T06:56:24.963Z,42.10
2022-08-20T06:58:52.655Z,42.10
2022-08-20T07:01:21.812Z,42.20
2022-08-20T07:03:55.443Z,42.20
2022-08-20T07:06:25.255Z,42.20
2022-08-20T07:08:52.968Z,42.30
2022-08-20T07:11:27.019Z,42.30
2022-08-20T07:13:56.460Z,42.40
2022-08-20T07:16:25.473Z,42.40
2022-08-20T07:18:53.143Z,42.40
2022-08-20T07:21:20.817Z,42.30
2022-08-20T07:23:49.373Z,42.30
2022-08-20T07:26:17.142Z,42.40
2022-08-20T07:28:44.822Z,42.40
2022-08-20T07:31:30.607Z,42.50
2022-08-20T07:34:00.982Z,42.40
2022-08-20T07:36:29.024Z,42.50
2022-08-20T07:38:56.890Z,42.50
2022-08-20T07:41:24.764Z,42.60
2022-08-20T07:43:52.480Z,42.60
2022-08-20T07:46:21.426Z,42.60
2022-08-20T07:48:51.212Z,42.50
2022-08-20T07:51:22.178Z,42.60
2022-08-20T07:53:50.184Z,42.60
2022-08-20T07:56:21.197Z,42.60
2022-08-20T07:58:50.314Z,42.60
2022-08-20T08:01:18.533Z,42.60
2022-08-20T08:03:49.928Z,42.70
2022-08-20T08:06:29.118Z,42.70
2022-08-20T08:08:59.107Z,42.70
2022-08-20T08:11:26.795Z,42.70
2022-08-20T08:13:54.544Z,42.70
2022-08-20T08:16:22.250Z,42.70
2022-08-20T08:18:50.954Z,42.70
2022-08-20T08:21:22.339Z,42.50
2022-08-20T08:23:50.173Z,42.50
2022-08-20T08:26:18.995Z,42.50
2022-08-20T08:28:47.131Z,42.50
2022-08-20T08:31:15.005Z,42.40
2022-08-20T08:33:43.000Z,42.30
2022-08-20T08:36:13.161Z,42.30
2022-08-20T08:38:44.225Z,42.20
2022-08-20T08:41:14.966Z,42.20
2022-08-20T08:43:42.664Z,42.10
2022-08-20T08:46:11.367Z,42.00
2022-08-20T08:48:43.389Z,41.90
2022-08-20T08:51:12.707Z,41.60
2022-08-20T08:53:43.178Z,41.80
2022-08-20T08:56:10.906Z,41.80
2022-08-20T08:58:38.680Z,41.70
2022-08-20T09:01:13.964Z,41.60
2022-08-20T09:03:58.040Z,41.10
2022-08-20T09:06:26.045Z,41.40
2022-08-20T09:08:57.008Z,41.30
2022-08-20T09:11:25.182Z,41.30
2022-08-20T09:13:54.069Z,41.50
2022-08-20T09:16:22.523Z,41.20
2022-08-20T09:18:50.227Z,41.30
2022-08-20T09:21:18.207Z,41.20
2022-08-20T09:23:46.085Z,41.00
2022-08-20T09:26:15.124Z,40.80
2022-08-20T09:28:42.800Z,40.70
2022-08-20T09:31:10.495Z,41.00
2022-08-20T09:33:38.193Z,40.90
2022-08-20T09:36:29.110Z,41.30
2022-08-20T09:38:54.611Z,41.80
2022-08-20T09:41:23.623Z,42.20
2022-08-20T09:43:51.328Z,42.30
2022-08-20T09:46:19.024Z,41.90
2022-08-20T09:48:46.870Z,41.60
2022-08-20T09:51:14.613Z,41.50
2022-08-20T09:53:42.329Z,41.00
2022-08-20T09:56:10.034Z,40.50
2022-08-20T09:58:42.292Z,40.30
2022-08-20T10:01:14.031Z,40.10
2022-08-20T10:03:42.128Z,39.80
2022-08-20T10:06:11.057Z,39.60
2022-08-20T10:08:38.902Z,39.50
2022-08-20T10:11:06.811Z,39.40
2022-08-20T10:13:34.506Z,39.30
2022-08-20T10:16:03.824Z,38.80
2022-08-20T10:18:31.582Z,38.60
2022-08-20T10:20:59.286Z,38.40
2022-08-20T10:23:27.013Z,38.10
2022-08-20T10:25:54.719Z,37.80
2022-08-20T10:28:22.466Z,37.80
2022-08-20T10:30:50.117Z,38.10
2022-08-20T10:33:19.964Z,38.30
2022-08-20T10:35:47.686Z,38.10
2022-08-20T10:38:15.375Z,38.30
2022-08-20T10:40:43.060Z,38.30
2022-08-20T10:43:20.008Z,38.50
2022-08-20T10:45:47.757Z,38.70
2022-08-20T10:48:20.804Z,38.80
2022-08-20T10:50:50.640Z,38.80
2022-08-20T10:53:18.442Z,38.90
2022-08-20T10:55:46.208Z,39.30
2022-08-20T10:58:13.992Z,39.10
2022-08-20T11:00:42.307Z,39.00
2022-08-20T11:03:10.006Z,39.20
2022-08-20T11:05:37.774Z,39.40
2022-08-20T11:08:07.007Z,38.80
2022-08-20T11:10:35.359Z,38.50
2022-08-20T11:13:03.421Z,38.30
2022-08-20T11:15:31.287Z,38.40
2022-08-20T11:17:59.068Z,38.30
2022-08-20T11:20:27.177Z,38.70
2022-08-20T11:23:05.067Z,38.70
2022-08-20T11:25:32.833Z,38.80
2022-08-20T11:28:00.506Z,38.70
2022-08-20T11:30:29.784Z,38.60
2022-08-20T11:32:57.841Z,38.60
2022-08-20T11:35:48.496Z,39.20
2022-08-20T11:38:15.172Z,39.10
2022-08-20T11:40:42.862Z,38.80
2022-08-20T11:43:14.840Z,38.80
2022-08-20T11:45:43.946Z,38.80
2022-08-20T11:48:11.676Z,38.90
2022-08-20T11:50:39.398Z,38.80
2022-08-20T11:53:07.999Z,38.50
2022-08-20T11:55:37.772Z,38.90
2022-08-20T11:58:06.512Z,39.20
2022-08-20T12:00:34.485Z,39.50
2022-08-20T12:03:04.867Z,38.90
2022-08-20T12:05:33.049Z,39.00
2022-08-20T12:08:01.450Z,38.80
2022-08-20T12:10:29.232Z,38.60
2022-08-20T12:12:58.528Z,38.50
2022-08-20T12:15:27.437Z,38.40
2022-08-20T12:17:55.342Z,38.20
2022-08-20T12:20:23.781Z,38.20
2022-08-20T12:22:52.591Z,38.40
2022-08-20T12:25:20.591Z,37.80
2022-08-20T12:27:48.303Z,38.00
2022-08-20T12:30:23.715Z,37.80
2022-08-20T12:32:51.543Z,37.70
2022-08-20T12:35:19.372Z,37.40
2022-08-20T12:37:47.329Z,37.20
2022-08-20T12:40:16.533Z,36.90
2022-08-20T12:42:44.435Z,36.80
2022-08-20T12:45:12.520Z,36.50
2022-08-20T12:47:42.295Z,36.20
2022-08-20T12:50:13.685Z,36.20
2022-08-20T12:52:41.699Z,35.80
2022-08-20T12:55:10.607Z,36.00
2022-08-20T12:57:41.602Z,35.60
2022-08-20T13:00:11.405Z,35.10
2022-08-20T13:02:41.035Z,35.60
2022-08-20T13:05:10.635Z,35.30
2022-08-20T13:07:38.836Z,35.00
2022-08-20T13:10:07.879Z,34.90
2022-08-20T13:12:36.313Z,35.00
2022-08-20T13:15:04.171Z,34.70
2022-08-20T13:17:38.657Z,35.00
2022-08-20T13:20:10.850Z,35.10
2022-08-20T13:22:38.597Z,35.40
2022-08-20T13:25:07.207Z,34.90
2022-08-20T13:27:38.190Z,36.00
2022-08-20T13:30:06.788Z,35.90
2022-08-20T13:32:35.299Z,36.00
2022-08-20T13:35:02.980Z,36.00
2022-08-20T13:37:32.142Z,36.10
2022-08-20T13:40:00.203Z,35.90
2022-08-20T13:42:28.400Z,35.40
2022-08-20T13:44:56.065Z,34.90
2022-08-20T13:47:26.010Z,35.20
2022-08-20T13:49:56.174Z,35.10
2022-08-20T13:52:24.143Z,35.50
2022-08-20T13:54:53.556Z,35.20
2022-08-20T13:57:21.976Z,35.30
2022-08-20T13:59:50.691Z,35.30
2022-08-20T14:02:19.040Z,35.60
2022-08-20T14:04:47.212Z,35.60
2022-08-20T14:07:16.840Z,35.60
2022-08-20T14:09:45.999Z,35.60
2022-08-20T14:12:15.407Z,35.20
2022-08-20T14:14:43.318Z,35.00
2022-08-20T14:17:16.219Z,35.20
2022-08-20T14:19:44.040Z,35.10
2022-08-20T14:22:11.824Z,35.00
2022-08-20T14:24:39.502Z,35.10
2022-08-20T14:27:07.722Z,35.10
2022-08-20T14:29:37.382Z,34.90
2022-08-20T14:32:05.664Z,34.80
2022-08-20T14:34:33.554Z,35.20
2022-08-20T14:37:11.092Z,34.90
2022-08-20T14:39:39.018Z,34.80
2022-08-20T14:42:07.171Z,34.70
2022-08-20T14:44:36.314Z,34.60
2022-08-20T14:47:14.693Z,34.30
2022-08-20T14:49:42.469Z,34.60
2022-08-20T14:52:10.279Z,34.70
2022-08-20T14:54:38.246Z,34.40
2022-08-20T14:57:06.322Z,33.60
2022-08-20T14:59:42.060Z,34.00
2022-08-20T15:02:10.961Z,34.50
2022-08-20T15:04:38.823Z,34.70
2022-08-20T15:07:14.689Z,34.10
2022-08-20T15:09:44.212Z,33.30
2022-08-20T15:12:11.921Z,33.20
2022-08-20T15:14:39.617Z,33.30
2022-08-20T15:17:10.905Z,33.30
2022-08-20T15:19:38.716Z,33.10
2022-08-20T15:22:06.436Z,33.20
2022-08-20T15:24:34.156Z,33.40
2022-08-20T15:27:12.947Z,33.40
2022-08-20T15:29:40.715Z,33.50
2022-08-20T15:32:09.729Z,34.10
2022-08-20T15:34:37.612Z,34.60
2022-08-20T15:37:08.460Z,35.00
2022-08-20T15:39:36.227Z,35.00
2022-08-20T15:42:04.314Z,34.90
2022-08-20T15:44:32.039Z,35.00
2022-08-20T15:47:12.663Z,35.00
2022-08-20T15:49:40.442Z,35.20
2022-08-20T15:52:08.184Z,35.30
2022-08-20T15:54:35.862Z,35.30
2022-08-20T15:57:06.154Z,35.50
2022-08-20T15:59:47.107Z,35.80
2022-08-20T16:02:35.731Z,36.20
2022-08-20T16:05:10.404Z,36.00
2022-08-20T16:07:43.700Z,36.90
2022-08-20T16:10:16.060Z,37.00
2022-08-20T16:12:44.860Z,36.90
2022-08-20T16:15:17.268Z,37.20
2022-08-20T16:17:47.795Z,37.50
2022-08-20T16:20:18.697Z,38.00
2022-08-20T16:22:47.016Z,38.20
2022-08-20T16:25:15.219Z,38.20
2022-08-20T16:27:48.200Z,38.70
2022-08-20T16:30:21.915Z,39.20
2022-08-20T16:32:53.922Z,39.00
2022-08-20T16:35:30.585Z,38.90
2022-08-20T16:38:05.556Z,39.70
2022-08-20T16:40:34.834Z,32.60
2022-08-20T16:43:04.424Z,28.40
2022-08-20T16:45:34.488Z,26.50
2022-08-20T16:48:05.659Z,25.30
2022-08-20T16:50:35.896Z,24.00
2022-08-20T16:53:03.594Z,23.60
2022-08-20T16:55:31.319Z,22.80
2022-08-20T16:57:59.000Z,22.80
2022-08-20T17:00:29.362Z,22.70
2022-08-20T17:02:58.129Z,22.10
2022-08-20T17:05:28.352Z,23.10
2022-08-20T17:08:00.040Z,24.00
2022-08-20T17:10:29.476Z,24.90
2022-08-20T17:12:59.639Z,25.70
2022-08-20T17:15:29.650Z,26.80
2022-08-20T17:17:57.335Z,27.60
2022-08-20T17:20:28.105Z,28.30
2022-08-20T17:23:09.740Z,28.70
2022-08-20T17:25:38.188Z,30.00
2022-08-20T17:28:14.493Z,30.00
2022-08-20T17:30:42.430Z,31.40
2022-08-20T17:33:28.374Z,31.30
2022-08-20T17:35:58.369Z,32.20
2022-08-20T17:38:29.364Z,31.90
2022-08-20T17:40:59.501Z,30.10
2022-08-20T17:43:29.514Z,29.80
2022-08-20T17:45:57.279Z,31.10
2022-08-20T17:48:26.693Z,32.20
2022-08-20T17:50:54.408Z,32.90
2022-08-20T17:53:25.264Z,33.20
2022-08-20T17:55:54.637Z,33.80
2022-08-20T17:58:24.827Z,34.20
2022-08-20T18:00:52.555Z,34.40
2022-08-20T18:03:21.839Z,34.70
2022-08-20T18:05:55.007Z,35.30
2022-08-20T18:08:37.879Z,35.70
2022-08-20T18:11:11.174Z,37.00
2022-08-20T18:13:48.100Z,36.50
2022-08-20T18:16:20.918Z,36.50
2022-08-20T18:18:56.691Z,37.10
2022-08-20T18:21:55.362Z,37.50
2022-08-20T18:24:25.872Z,38.50
2022-08-20T18:26:54.792Z,37.90
2022-08-20T18:29:27.217Z,37.90
2022-08-20T18:31:56.504Z,38.20
2022-08-20T18:34:35.948Z,38.50
2022-08-20T18:37:05.323Z,39.10
2022-08-20T18:39:35.729Z,39.00
2022-08-20T18:42:05.324Z,38.90
2022-08-20T18:44:37.098Z,38.80
2022-08-20T18:47:05.651Z,39.20
2022-08-20T18:49:34.878Z,39.30
2022-08-20T18:52:09.947Z,39.40
2022-08-20T18:54:38.992Z,39.70
2022-08-20T18:57:07.820Z,39.70
2022-08-20T18:59:38.619Z,39.70
2022-08-20T19:02:15.312Z,39.80
2022-08-20T19:04:43.089Z,40.20
2022-08-20T19:07:11.519Z,39.90
2022-08-20T19:09:50.461Z,40.00
2022-08-20T19:12:25.188Z,40.40
2022-08-20T19:15:01.156Z,40.40
2022-08-20T19:17:38.152Z,40.50
2022-08-20T19:20:07.200Z,40.60
2022-08-20T19:22:34.928Z,40.50
2022-08-20T19:25:04.023Z,40.50
2022-08-20T19:27:31.689Z,40.70
2022-08-20T19:29:59.375Z,40.60
2022-08-20T19:32:28.653Z,40.80
2022-08-20T19:34:57.257Z,40.80
2022-08-20T19:37:35.137Z,40.90
2022-08-20T19:40:20.549Z,40.90
2022-08-20T19:42:48.263Z,41.30
2022-08-20T19:45:18.382Z,41.10
2022-08-20T19:47:54.940Z,41.10
2022-08-20T19:50:30.124Z,41.30
2022-08-20T19:53:13.744Z,41.40
2022-08-20T19:55:42.793Z,41.40
2022-08-20T19:58:26.068Z,41.50
2022-08-20T20:00:54.283Z,41.80
2022-08-20T20:03:24.103Z,41.80
2022-08-20T20:05:54.975Z,42.10
2022-08-20T20:08:22.989Z,42.30
2022-08-20T20:10:56.564Z,42.40
2022-08-20T20:13:26.353Z,43.00
2022-08-20T20:15:58.943Z,42.90
2022-08-20T20:18:29.368Z,43.00
2022-08-20T20:21:11.723Z,43.30
2022-08-20T20:23:46.839Z,43.30
2022-08-20T20:26:17.512Z,43.50
2022-08-20T20:28:46.328Z,43.50
2022-08-20T20:31:18.268Z,43.60
2022-08-20T20:33:46.935Z,43.70
2022-08-20T20:36:16.671Z,43.70
2022-08-20T20:38:54.039Z,43.80
2022-08-20T20:41:24.637Z,44.10
2022-08-20T20:44:00.092Z,44.00
2022-08-20T20:46:28.692Z,44.20
2022-08-20T20:48:59.211Z,44.00
2022-08-20T20:51:28.504Z,44.10
2022-08-20T20:53:57.028Z,44.00
2022-08-20T20:56:32.268Z,44.10
2022-08-20T20:59:05.498Z,44.20
2022-08-20T21:01:41.443Z,44.20
2022-08-20T21:04:18.857Z,44.10
2022-08-20T21:06:46.564Z,44.00
2022-08-20T21:09:14.299Z,44.00
2022-08-20T21:11:43.303Z,44.10
2022-08-20T21:14:10.964Z,44.20
2022-08-20T21:16:38.653Z,44.20
2022-08-20T21:19:06.862Z,44.10
2022-08-20T21:21:34.587Z,44.10
2022-08-20T21:24:02.294Z,44.10
2022-08-20T21:26:29.981Z,44.10
2022-08-20T21:28:58.991Z,44.10
2022-08-20T21:31:29.656Z,44.10
2022-08-20T21:33:57.361Z,44.10
2022-08-20T21:36:25.079Z,44.10
2022-08-20T21:38:52.935Z,44.00
2022-08-20T21:41:25.108Z,44.00
2022-08-20T21:43:58.760Z,44.10
2022-08-20T21:46:28.556Z,44.00
2022-08-20T21:48:56.472Z,43.90
2022-08-20T21:51:24.153Z,44.00
2022-08-20T21:53:51.952Z,43.90
2022-08-20T21:56:19.644Z,43.90
2022-08-20T21:58:47.676Z,43.90
2022-08-20T22:01:16.728Z,43.90
2022-08-20T22:03:44.477Z,43.80
2022-08-20T22:06:17.367Z,43.90
2022-08-20T22:08:45.032Z,43.80
2022-08-20T22:11:12.740Z,43.70
2022-08-20T22:13:40.488Z,43.70
2022-08-20T22:16:18.339Z,43.70
2022-08-20T22:18:47.549Z,43.70
2022-08-20T22:21:16.724Z,43.70
2022-08-20T22:23:44.427Z,43.70
2022-08-20T22:26:12.118Z,43.60
2022-08-20T22:28:39.783Z,43.60
2022-08-20T22:31:07.477Z,43.60
2022-08-20T22:33:35.265Z,43.50
2022-08-20T22:36:05.231Z,43.50
2022-08-20T22:38:32.899Z,43.60
2022-08-20T22:41:00.668Z,43.50
2022-08-20T22:43:28.351Z,43.50
2022-08-20T22:46:00.098Z,43.50
2022-08-20T22:48:27.980Z,43.30
2022-08-20T22:50:55.909Z,43.30
2022-08-20T22:53:25.478Z,43.30
2022-08-20T22:55:53.272Z,43.30
2022-08-20T22:58:31.194Z,43.20
2022-08-20T23:00:59.499Z,43.20
2022-08-20T23:03:39.867Z,43.10
2022-08-20T23:06:08.216Z,43.00
2022-08-20T23:08:38.810Z,43.00
2022-08-20T23:11:06.895Z,43.00
2022-08-20T23:13:34.723Z,43.00
2022-08-20T23:16:02.403Z,43.00
2022-08-20T23:18:30.095Z,42.90
2022-08-20T23:20:58.940Z,42.90
2022-08-20T23:23:27.015Z,42.90
2022-08-20T23:25:56.014Z,42.80
2022-08-20T23:28:24.652Z,42.70
2022-08-20T23:30:52.346Z,42.70
2022-08-20T23:33:20.084Z,42.70
2022-08-20T23:35:47.930Z,42.70
2022-08-20T23:38:15.654Z,42.70
2022-08-20T23:40:43.335Z,42.60
2022-08-20T23:43:12.384Z,42.50
2022-08-20T23:45:40.163Z,42.50
2022-08-20T23:48:08.029Z,42.50
2022-08-20T23:50:35.842Z,42.50
2022-08-20T23:53:03.738Z,42.50
2022-08-20T23:55:31.519Z,42.50
2022-08-20T23:57:59.215Z,42.50
